sensor_id;sensor_type;location;lat;lon;timestamp;pressure;altitude;pressure_sealevel;temperature;humidity
75656;BME280;64252;51.094;13.714;2024-02-23T00:00:50;97665.09;;;20.69;44.34
75656;BME280;64252;51.094;13.714;2024-02-23T00:03:17;97671.09;;;20.71;44.80
75656;BME280;64252;51.094;13.714;2024-02-23T00:05:43;97680.94;;;20.98;43.79
75656;BME280;64252;51.094;13.714;2024-02-23T00:08:09;97677.59;;;20.88;43.98
75656;BME280;64252;51.094;13.714;2024-02-23T00:10:35;97665.94;;;20.42;44.54
75656;BME280;64252;51.094;13.714;2024-02-23T00:13:01;97676.84;;;20.54;43.94
75656;BME280;64252;51.094;13.714;2024-02-23T00:15:27;97669.69;;;21.06;43.65
75656;BME280;64252;51.094;13.714;2024-02-23T00:17:52;97676.72;;;21.21;42.84
75656;BME280;64252;51.094;13.714;2024-02-23T00:20:18;97669.03;;;20.44;44.42
75656;BME280;64252;51.094;13.714;2024-02-23T00:22:43;97687.53;;;20.76;43.93
75656;BME280;64252;51.094;13.714;2024-02-23T00:25:09;97685.03;;;21.30;42.42
75656;BME280;64252;51.094;13.714;2024-02-23T00:27:35;97689.63;;;20.59;43.74
75656;BME280;64252;51.094;13.714;2024-02-23T00:30:00;97698.22;;;20.76;43.74
75656;BME280;64252;51.094;13.714;2024-02-23T00:32:26;97688.03;;;20.13;45.84
75656;BME280;64252;51.094;13.714;2024-02-23T00:34:51;97691.88;;;21.22;42.68
75656;BME280;64252;51.094;13.714;2024-02-23T00:37:17;97685.63;;;21.18;42.92
75656;BME280;64252;51.094;13.714;2024-02-23T00:39:42;97685.22;;;20.47;44.27
75656;BME280;64252;51.094;13.714;2024-02-23T00:42:08;97672.41;;;20.59;43.72
75656;BME280;64252;51.094;13.714;2024-02-23T00:44:34;97670.06;;;20.63;43.46
75656;BME280;64252;51.094;13.714;2024-02-23T00:46:59;97656.38;;;18.82;46.05
75656;BME280;64252;51.094;13.714;2024-02-23T00:49:27;97666.94;;;20.55;42.82
75656;BME280;64252;51.094;13.714;2024-02-23T00:51:53;97671.56;;;19.69;43.78
75656;BME280;64252;51.094;13.714;2024-02-23T00:54:19;97677.13;;;20.62;41.70
75656;BME280;64252;51.094;13.714;2024-02-23T00:56:45;97686.47;;;20.90;40.75
75656;BME280;64252;51.094;13.714;2024-02-23T00:59:10;97677.09;;;20.17;41.82
75656;BME280;64252;51.094;13.714;2024-02-23T01:01:36;97675.03;;;20.57;40.37
75656;BME280;64252;51.094;13.714;2024-02-23T01:04:01;97669.19;;;21.07;40.05
75656;BME280;64252;51.094;13.714;2024-02-23T01:06:27;97663.53;;;19.90;41.78
75656;BME280;64252;51.094;13.714;2024-02-23T01:08:53;97669.84;;;20.33;39.80
75656;BME280;64252;51.094;13.714;2024-02-23T01:11:19;97674.97;;;20.90;39.15
75656;BME280;64252;51.094;13.714;2024-02-23T01:13:45;97688.78;;;20.86;38.41
75656;BME280;64252;51.094;13.714;2024-02-23T01:16:10;97710.47;;;20.32;39.73
75656;BME280;64252;51.094;13.714;2024-02-23T01:18:36;97697.41;;;20.08;39.77
75656;BME280;64252;51.094;13.714;2024-02-23T01:21:02;97716.41;;;21.06;38.63
75656;BME280;64252;51.094;13.714;2024-02-23T01:23:30;97713.63;;;20.34;39.40
75656;BME280;64252;51.094;13.714;2024-02-23T01:25:56;97718.50;;;20.11;39.74
75656;BME280;64252;51.094;13.714;2024-02-23T01:28:21;97718.53;;;20.89;39.25
75656;BME280;64252;51.094;13.714;2024-02-23T01:30:47;97713.84;;;20.58;38.87
75656;BME280;64252;51.094;13.714;2024-02-23T01:33:13;97716.44;;;20.28;39.99
75656;BME280;64252;51.094;13.714;2024-02-23T01:35:38;97720.84;;;20.12;40.70
75656;BME280;64252;51.094;13.714;2024-02-23T01:38:04;97754.78;;;20.64;39.08
75656;BME280;64252;51.094;13.714;2024-02-23T01:40:30;97776.53;;;19.89;40.24
75656;BME280;64252;51.094;13.714;2024-02-23T01:43:03;97779.66;;;19.86;40.30
75656;BME280;64252;51.094;13.714;2024-02-23T01:45:29;97783.84;;;20.01;39.92
75656;BME280;64252;51.094;13.714;2024-02-23T01:47:55;97783.00;;;19.79;39.96
75656;BME280;64252;51.094;13.714;2024-02-23T01:50:21;97803.19;;;20.17;39.30
75656;BME280;64252;51.094;13.714;2024-02-23T01:52:47;97808.75;;;20.82;38.29
75656;BME280;64252;51.094;13.714;2024-02-23T01:55:14;97799.25;;;20.09;38.95
75656;BME280;64252;51.094;13.714;2024-02-23T01:57:39;97795.72;;;21.03;37.96
75656;BME280;64252;51.094;13.714;2024-02-23T02:00:07;97795.97;;;21.06;38.57
75656;BME280;64252;51.094;13.714;2024-02-23T02:02:35;97807.16;;;20.37;38.81
75656;BME280;64252;51.094;13.714;2024-02-23T02:05:01;97819.44;;;20.65;38.74
75656;BME280;64252;51.094;13.714;2024-02-23T02:07:27;97819.28;;;19.98;39.83
75656;BME280;64252;51.094;13.714;2024-02-23T02:09:53;97826.81;;;19.90;39.35
75656;BME280;64252;51.094;13.714;2024-02-23T02:12:28;97814.81;;;19.38;40.08
75656;BME280;64252;51.094;13.714;2024-02-23T02:14:54;97817.88;;;19.71;39.43
75656;BME280;64252;51.094;13.714;2024-02-23T02:17:21;97830.91;;;20.43;38.74
75656;BME280;64252;51.094;13.714;2024-02-23T02:19:50;97830.81;;;20.26;38.97
75656;BME280;64252;51.094;13.714;2024-02-23T02:22:15;97851.84;;;20.01;38.34
75656;BME280;64252;51.094;13.714;2024-02-23T02:24:41;97866.59;;;19.77;38.66
75656;BME280;64252;51.094;13.714;2024-02-23T02:27:10;97868.56;;;20.25;38.41
75656;BME280;64252;51.094;13.714;2024-02-23T02:29:35;97872.00;;;20.29;37.95
75656;BME280;64252;51.094;13.714;2024-02-23T02:32:01;97867.34;;;19.72;38.92
75656;BME280;64252;51.094;13.714;2024-02-23T02:34:28;97872.41;;;20.81;37.37
75656;BME280;64252;51.094;13.714;2024-02-23T02:36:55;97871.81;;;19.84;38.40
75656;BME280;64252;51.094;13.714;2024-02-23T02:39:20;97875.97;;;19.83;38.96
75656;BME280;64252;51.094;13.714;2024-02-23T02:41:48;97870.75;;;19.76;38.20
75656;BME280;64252;51.094;13.714;2024-02-23T02:44:14;97881.72;;;19.09;39.30
75656;BME280;64252;51.094;13.714;2024-02-23T02:46:40;97898.41;;;19.90;37.91
75656;BME280;64252;51.094;13.714;2024-02-23T02:49:06;97880.69;;;19.86;37.87
75656;BME280;64252;51.094;13.714;2024-02-23T02:51:32;97885.69;;;19.49;38.66
75656;BME280;64252;51.094;13.714;2024-02-23T02:53:57;97905.81;;;18.97;39.29
75656;BME280;64252;51.094;13.714;2024-02-23T02:56:24;97908.72;;;19.71;38.43
75656;BME280;64252;51.094;13.714;2024-02-23T02:58:50;97910.28;;;19.41;38.52
75656;BME280;64252;51.094;13.714;2024-02-23T03:01:15;97932.25;;;19.49;38.33
75656;BME280;64252;51.094;13.714;2024-02-23T03:03:41;97931.69;;;19.82;37.83
75656;BME280;64252;51.094;13.714;2024-02-23T03:06:09;97925.81;;;18.97;39.45
75656;BME280;64252;51.094;13.714;2024-02-23T03:08:35;97945.50;;;19.47;38.54
75656;BME280;64252;51.094;13.714;2024-02-23T03:11:00;97945.78;;;18.46;39.42
75656;BME280;64252;51.094;13.714;2024-02-23T03:13:26;97943.59;;;19.07;38.57
75656;BME280;64252;51.094;13.714;2024-02-23T03:15:51;97951.88;;;18.53;39.40
75656;BME280;64252;51.094;13.714;2024-02-23T03:18:17;97949.47;;;18.98;38.37
75656;BME280;64252;51.094;13.714;2024-02-23T03:20:42;97960.47;;;18.79;38.56
75656;BME280;64252;51.094;13.714;2024-02-23T03:23:08;97965.56;;;19.21;38.58
75656;BME280;64252;51.094;13.714;2024-02-23T03:25:33;97974.53;;;19.08;38.07
75656;BME280;64252;51.094;13.714;2024-02-23T03:27:59;97979.94;;;18.34;38.70
75656;BME280;64252;51.094;13.714;2024-02-23T03:30:25;97987.03;;;18.85;37.71
75656;BME280;64252;51.094;13.714;2024-02-23T03:32:51;98002.66;;;18.43;38.20
75656;BME280;64252;51.094;13.714;2024-02-23T03:35:16;97997.94;;;17.85;38.42
75656;BME280;64252;51.094;13.714;2024-02-23T03:37:42;98016.00;;;17.77;38.39
75656;BME280;64252;51.094;13.714;2024-02-23T03:40:08;98013.75;;;18.36;37.62
75656;BME280;64252;51.094;13.714;2024-02-23T03:42:35;98022.38;;;18.21;37.89
75656;BME280;64252;51.094;13.714;2024-02-23T03:45:01;98028.53;;;17.99;38.10
75656;BME280;64252;51.094;13.714;2024-02-23T03:47:26;98045.38;;;18.53;37.38
75656;BME280;64252;51.094;13.714;2024-02-23T03:49:52;98076.13;;;17.88;38.42
75656;BME280;64252;51.094;13.714;2024-02-23T03:52:18;98080.22;;;18.16;38.46
75656;BME280;64252;51.094;13.714;2024-02-23T03:54:44;98094.84;;;17.45;39.38
75656;BME280;64252;51.094;13.714;2024-02-23T03:57:12;98105.84;;;17.23;35.92
75656;BME280;64252;51.094;13.714;2024-02-23T03:59:37;98107.91;;;17.22;35.00
75656;BME280;64252;51.094;13.714;2024-02-23T04:02:04;98113.72;;;17.42;35.43
75656;BME280;64252;51.094;13.714;2024-02-23T04:04:30;98125.75;;;17.61;34.14
75656;BME280;64252;51.094;13.714;2024-02-23T04:06:55;98138.38;;;17.84;34.85
75656;BME280;64252;51.094;13.714;2024-02-23T04:09:24;98147.75;;;17.31;35.14
75656;BME280;64252;51.094;13.714;2024-02-23T04:11:51;98167.94;;;17.04;35.52
75656;BME280;64252;51.094;13.714;2024-02-23T04:14:16;98165.91;;;16.81;35.11
75656;BME280;64252;51.094;13.714;2024-02-23T04:16:47;98167.59;;;17.26;34.42
75656;BME280;64252;51.094;13.714;2024-02-23T04:19:13;98167.31;;;17.00;34.95
75656;BME280;64252;51.094;13.714;2024-02-23T04:21:42;98166.84;;;17.01;34.53
75656;BME280;64252;51.094;13.714;2024-02-23T04:24:08;98154.78;;;17.06;33.86
75656;BME280;64252;51.094;13.714;2024-02-23T04:26:34;98156.16;;;17.11;34.08
75656;BME280;64252;51.094;13.714;2024-02-23T04:28:59;98164.63;;;17.20;34.26
75656;BME280;64252;51.094;13.714;2024-02-23T04:31:25;98170.16;;;16.61;34.53
75656;BME280;64252;51.094;13.714;2024-02-23T04:33:50;98169.09;;;16.74;34.47
75656;BME280;64252;51.094;13.714;2024-02-23T04:36:19;98177.47;;;16.77;34.45
75656;BME280;64252;51.094;13.714;2024-02-23T04:38:46;98173.38;;;17.17;34.05
75656;BME280;64252;51.094;13.714;2024-02-23T04:41:11;98178.78;;;17.15;34.16
75656;BME280;64252;51.094;13.714;2024-02-23T04:43:37;98184.31;;;17.18;34.05
75656;BME280;64252;51.094;13.714;2024-02-23T04:46:03;98183.72;;;17.29;34.00
75656;BME280;64252;51.094;13.714;2024-02-23T04:48:31;98186.94;;;17.07;33.99
75656;BME280;64252;51.094;13.714;2024-02-23T04:50:57;98188.88;;;17.39;33.54
75656;BME280;64252;51.094;13.714;2024-02-23T04:53:26;98214.13;;;16.93;34.35
75656;BME280;64252;51.094;13.714;2024-02-23T04:55:55;98219.03;;;17.55;33.83
75656;BME280;64252;51.094;13.714;2024-02-23T04:58:21;98220.66;;;17.47;33.84
75656;BME280;64252;51.094;13.714;2024-02-23T05:00:47;98234.09;;;17.55;33.76
75656;BME280;64252;51.094;13.714;2024-02-23T05:03:13;98246.44;;;17.14;34.91
75656;BME280;64252;51.094;13.714;2024-02-23T05:05:39;98252.47;;;16.59;36.29
75656;BME280;64252;51.094;13.714;2024-02-23T05:08:05;98264.22;;;16.85;36.19
75656;BME280;64252;51.094;13.714;2024-02-23T05:10:33;98276.91;;;17.08;36.03
75656;BME280;64252;51.094;13.714;2024-02-23T05:12:58;98277.38;;;16.83;36.19
75656;BME280;64252;51.094;13.714;2024-02-23T05:15:24;98277.81;;;17.14;35.80
75656;BME280;64252;51.094;13.714;2024-02-23T05:17:49;98293.16;;;16.93;36.55
75656;BME280;64252;51.094;13.714;2024-02-23T05:20:15;98285.88;;;17.39;35.67
75656;BME280;64252;51.094;13.714;2024-02-23T05:22:40;98281.97;;;17.51;35.97
75656;BME280;64252;51.094;13.714;2024-02-23T05:25:06;98284.25;;;17.24;36.44
75656;BME280;64252;51.094;13.714;2024-02-23T05:27:32;98285.09;;;17.39;35.82
75656;BME280;64252;51.094;13.714;2024-02-23T05:29:58;98289.38;;;17.58;35.72
75656;BME280;64252;51.094;13.714;2024-02-23T05:32:23;98298.84;;;16.93;36.31
75656;BME280;64252;51.094;13.714;2024-02-23T05:34:49;98296.06;;;16.33;37.17
75656;BME280;64252;51.094;13.714;2024-02-23T05:37:18;98287.06;;;16.16;36.82
75656;BME280;64252;51.094;13.714;2024-02-23T05:39:44;98294.22;;;16.62;36.42
75656;BME280;64252;51.094;13.714;2024-02-23T05:42:12;98293.53;;;17.33;35.63
75656;BME280;64252;51.094;13.714;2024-02-23T05:44:39;98285.63;;;16.81;35.79
75656;BME280;64252;51.094;13.714;2024-02-23T05:47:05;98293.38;;;16.29;36.34
75656;BME280;64252;51.094;13.714;2024-02-23T05:49:30;98297.88;;;16.96;35.89
75656;BME280;64252;51.094;13.714;2024-02-23T05:51:56;98306.94;;;16.61;35.59
75656;BME280;64252;51.094;13.714;2024-02-23T05:54:22;98310.59;;;16.86;35.36
75656;BME280;64252;51.094;13.714;2024-02-23T05:56:47;98307.66;;;16.11;36.12
75656;BME280;64252;51.094;13.714;2024-02-23T05:59:13;98316.97;;;16.81;35.45
75656;BME280;64252;51.094;13.714;2024-02-23T06:01:38;98333.25;;;16.38;35.93
75656;BME280;64252;51.094;13.714;2024-02-23T06:04:04;98347.53;;;16.02;36.24
75656;BME280;64252;51.094;13.714;2024-02-23T06:06:30;98339.25;;;16.31;35.80
75656;BME280;64252;51.094;13.714;2024-02-23T06:08:56;98346.72;;;15.92;35.60
75656;BME280;64252;51.094;13.714;2024-02-23T06:11:22;98354.28;;;16.32;35.44
75656;BME280;64252;51.094;13.714;2024-02-23T06:13:47;98351.19;;;16.72;35.60
75656;BME280;64252;51.094;13.714;2024-02-23T06:16:13;98368.81;;;17.03;34.19
75656;BME280;64252;51.094;13.714;2024-02-23T06:18:39;98363.53;;;17.43;34.08
75656;BME280;64252;51.094;13.714;2024-02-23T06:21:14;98364.53;;;17.07;34.51
75656;BME280;64252;51.094;13.714;2024-02-23T06:23:41;98365.69;;;16.92;34.33
75656;BME280;64252;51.094;13.714;2024-02-23T06:26:06;98367.38;;;17.07;34.69
75656;BME280;64252;51.094;13.714;2024-02-23T06:28:32;98379.66;;;16.90;34.51
75656;BME280;64252;51.094;13.714;2024-02-23T06:30:58;98383.47;;;16.78;35.11
75656;BME280;64252;51.094;13.714;2024-02-23T06:33:23;98385.28;;;17.41;34.02
75656;BME280;64252;51.094;13.714;2024-02-23T06:35:53;98394.75;;;17.14;34.57
75656;BME280;64252;51.094;13.714;2024-02-23T06:38:18;98389.91;;;17.29;34.47
75656;BME280;64252;51.094;13.714;2024-02-23T06:40:44;98399.66;;;16.72;34.76
75656;BME280;64252;51.094;13.714;2024-02-23T06:43:09;98392.31;;;17.31;34.29
75656;BME280;64252;51.094;13.714;2024-02-23T06:45:35;98387.19;;;17.35;34.45
75656;BME280;64252;51.094;13.714;2024-02-23T06:48:01;98398.28;;;17.66;33.97
75656;BME280;64252;51.094;13.714;2024-02-23T06:50:26;98392.97;;;17.59;34.31
75656;BME280;64252;51.094;13.714;2024-02-23T06:52:52;98403.16;;;17.18;34.43
75656;BME280;64252;51.094;13.714;2024-02-23T06:55:17;98402.63;;;17.52;34.33
75656;BME280;64252;51.094;13.714;2024-02-23T06:57:43;98402.22;;;17.11;34.45
75656;BME280;64252;51.094;13.714;2024-02-23T07:00:09;98393.16;;;17.79;33.70
75656;BME280;64252;51.094;13.714;2024-02-23T07:02:35;98384.47;;;17.40;34.31
75656;BME280;64252;51.094;13.714;2024-02-23T07:05:03;98388.72;;;17.45;34.47
75656;BME280;64252;51.094;13.714;2024-02-23T07:07:33;98393.19;;;17.13;34.85
75656;BME280;64252;51.094;13.714;2024-02-23T07:32:27;98444.59;;;16.95;35.38
75656;BME280;64252;51.094;13.714;2024-02-23T07:50:03;98467.63;;;17.90;34.90
75656;BME280;64252;51.094;13.714;2024-02-23T08:03:58;98510.28;;;17.51;35.32
75656;BME280;64252;51.094;13.714;2024-02-23T08:20:27;98514.47;;;17.41;34.82
75656;BME280;64252;51.094;13.714;2024-02-23T08:26:39;98523.34;;;17.34;34.46
75656;BME280;64252;51.094;13.714;2024-02-23T08:29:09;98523.63;;;17.54;34.41
75656;BME280;64252;51.094;13.714;2024-02-23T08:35:27;98523.47;;;16.89;34.96
75656;BME280;64252;51.094;13.714;2024-02-23T08:38:07;98512.53;;;16.87;35.45
75656;BME280;64252;51.094;13.714;2024-02-23T08:40:34;98508.72;;;16.99;35.06
75656;BME280;64252;51.094;13.714;2024-02-23T08:47:41;98498.19;;;17.66;33.99
75656;BME280;64252;51.094;13.714;2024-02-23T08:53:53;98493.66;;;17.50;34.31
75656;BME280;64252;51.094;13.714;2024-02-23T08:56:20;98491.97;;;17.76;34.24
75656;BME280;64252;51.094;13.714;2024-02-23T08:58:46;98492.03;;;18.38;33.61
75656;BME280;64252;51.094;13.714;2024-02-23T09:01:12;98501.81;;;18.85;33.25
75656;BME280;64252;51.094;13.714;2024-02-23T09:03:39;98502.50;;;18.80;32.62
75656;BME280;64252;51.094;13.714;2024-02-23T09:06:06;98519.38;;;19.22;32.45
75656;BME280;64252;51.094;13.714;2024-02-23T09:11:20;98527.94;;;19.95;31.27
75656;BME280;64252;51.094;13.714;2024-02-23T09:13:50;98533.13;;;19.97;30.94
75656;BME280;64252;51.094;13.714;2024-02-23T09:16:18;98540.31;;;19.72;31.27
75656;BME280;64252;51.094;13.714;2024-02-23T09:19:11;98543.34;;;18.95;32.15
75656;BME280;64252;51.094;13.714;2024-02-23T09:25:55;98566.16;;;20.27;30.16
75656;BME280;64252;51.094;13.714;2024-02-23T09:28:21;98572.50;;;19.82;31.18
75656;BME280;64252;51.094;13.714;2024-02-23T09:30:47;98569.44;;;19.70;32.11
75656;BME280;64252;51.094;13.714;2024-02-23T09:33:34;98570.53;;;19.29;31.75
75656;BME280;64252;51.094;13.714;2024-02-23T09:36:08;98562.94;;;18.25;33.36
75656;BME280;64252;51.094;13.714;2024-02-23T09:38:41;98569.69;;;18.99;31.82
75656;BME280;64252;51.094;13.714;2024-02-23T09:41:20;98564.97;;;18.96;31.97
75656;BME280;64252;51.094;13.714;2024-02-23T09:47:57;98563.59;;;19.36;31.71
75656;BME280;64252;51.094;13.714;2024-02-23T09:51:41;98574.59;;;19.52;31.27
75656;BME280;64252;51.094;13.714;2024-02-23T09:57:57;98554.41;;;19.02;32.02
75656;BME280;64252;51.094;13.714;2024-02-23T10:00:36;98554.72;;;19.34;31.20
75656;BME280;64252;51.094;13.714;2024-02-23T10:03:06;98546.78;;;18.84;31.82
75656;BME280;64252;51.094;13.714;2024-02-23T10:05:50;98543.38;;;18.57;32.08
75656;BME280;64252;51.094;13.714;2024-02-23T10:08:19;98537.38;;;19.52;31.47
75656;BME280;64252;51.094;13.714;2024-02-23T10:10:50;98543.00;;;19.61;31.28
75656;BME280;64252;51.094;13.714;2024-02-23T10:13:20;98552.38;;;19.47;31.15
75656;BME280;64252;51.094;13.714;2024-02-23T10:15:57;98558.19;;;19.82;30.24
75656;BME280;64252;51.094;13.714;2024-02-23T10:18:29;98563.56;;;20.09;30.28
75656;BME280;64252;51.094;13.714;2024-02-23T10:21:06;98572.91;;;19.45;30.37
75656;BME280;64252;51.094;13.714;2024-02-23T10:23:44;98579.19;;;19.93;29.73
75656;BME280;64252;51.094;13.714;2024-02-23T10:26:29;98590.25;;;19.42;30.62
75656;BME280;64252;51.094;13.714;2024-02-23T10:29:13;98585.72;;;19.79;30.65
75656;BME280;64252;51.094;13.714;2024-02-23T10:31:51;98587.19;;;20.39;29.39
75656;BME280;64252;51.094;13.714;2024-02-23T10:34:18;98597.28;;;19.85;29.75
75656;BME280;64252;51.094;13.714;2024-02-23T10:36:45;98611.56;;;19.41;30.03
75656;BME280;64252;51.094;13.714;2024-02-23T10:39:16;98611.13;;;20.36;29.36
75656;BME280;64252;51.094;13.714;2024-02-23T10:41:47;98607.00;;;19.05;30.95
75656;BME280;64252;51.094;13.714;2024-02-23T10:44:16;98605.56;;;20.67;29.08
75656;BME280;64252;51.094;13.714;2024-02-23T10:46:44;98617.72;;;19.78;29.94
75656;BME280;64252;51.094;13.714;2024-02-23T10:49:10;98601.09;;;19.08;30.87
75656;BME280;64252;51.094;13.714;2024-02-23T10:51:39;98608.06;;;19.07;30.69
75656;BME280;64252;51.094;13.714;2024-02-23T10:54:06;98593.16;;;20.21;29.34
75656;BME280;64252;51.094;13.714;2024-02-23T10:56:31;98605.88;;;20.34;29.51
75656;BME280;64252;51.094;13.714;2024-02-23T10:58:57;98616.97;;;20.82;29.37
75656;BME280;64252;51.094;13.714;2024-02-23T11:01:24;98621.09;;;19.61;29.60
75656;BME280;64252;51.094;13.714;2024-02-23T11:03:51;98630.34;;;19.42;29.05
75656;BME280;64252;51.094;13.714;2024-02-23T11:06:19;98631.06;;;20.45;28.48
75656;BME280;64252;51.094;13.714;2024-02-23T11:08:47;98640.03;;;20.03;29.26
75656;BME280;64252;51.094;13.714;2024-02-23T11:11:16;98654.69;;;19.61;29.33
75656;BME280;64252;51.094;13.714;2024-02-23T11:13:45;98648.75;;;19.64;28.77
75656;BME280;64252;51.094;13.714;2024-02-23T11:16:21;98654.09;;;19.57;28.27
75656;BME280;64252;51.094;13.714;2024-02-23T11:18:47;98647.72;;;20.11;28.46
75656;BME280;64252;51.094;13.714;2024-02-23T11:21:12;98655.78;;;18.63;30.26
75656;BME280;64252;51.094;13.714;2024-02-23T11:23:48;98659.25;;;19.82;28.93
75656;BME280;64252;51.094;13.714;2024-02-23T11:26:15;98642.41;;;20.04;28.18
75656;BME280;64252;51.094;13.714;2024-02-23T11:28:48;98657.81;;;19.92;28.14
75656;BME280;64252;51.094;13.714;2024-02-23T11:31:15;98648.34;;;20.01;26.97
75656;BME280;64252;51.094;13.714;2024-02-23T11:33:48;98647.38;;;19.89;27.60
75656;BME280;64252;51.094;13.714;2024-02-23T11:36:42;98647.91;;;19.35;28.38
75656;BME280;64252;51.094;13.714;2024-02-23T11:39:09;98638.78;;;19.21;28.45
75656;BME280;64252;51.094;13.714;2024-02-23T11:41:38;98636.03;;;19.27;28.58
75656;BME280;64252;51.094;13.714;2024-02-23T11:44:04;98620.84;;;19.36;28.69
75656;BME280;64252;51.094;13.714;2024-02-23T11:46:32;98620.44;;;20.16;27.84
75656;BME280;64252;51.094;13.714;2024-02-23T11:48:57;98616.44;;;19.93;28.44
75656;BME280;64252;51.094;13.714;2024-02-23T11:51:24;98636.63;;;19.31;28.82
75656;BME280;64252;51.094;13.714;2024-02-23T11:53:52;98628.09;;;19.46;28.08
75656;BME280;64252;51.094;13.714;2024-02-23T11:56:18;98633.97;;;18.89;28.25
75656;BME280;64252;51.094;13.714;2024-02-23T11:58:46;98632.66;;;19.52;27.40
75656;BME280;64252;51.094;13.714;2024-02-23T12:01:12;98636.25;;;19.23;27.41
75656;BME280;64252;51.094;13.714;2024-02-23T12:03:37;98632.06;;;19.10;28.04
75656;BME280;64252;51.094;13.714;2024-02-23T12:06:05;98636.78;;;20.10;26.97
75656;BME280;64252;51.094;13.714;2024-02-23T12:22:13;98632.94;;;19.98;27.41
75656;BME280;64252;51.094;13.714;2024-02-23T12:26:01;98643.31;;;20.80;26.72
75656;BME280;64252;51.094;13.714;2024-02-23T12:29:05;98637.56;;;20.60;26.86
75656;BME280;64252;51.094;13.714;2024-02-23T12:32:06;98629.69;;;20.75;27.24
75656;BME280;64252;51.094;13.714;2024-02-23T12:34:32;98629.56;;;20.14;27.46
75656;BME280;64252;51.094;13.714;2024-02-23T12:36:58;98622.94;;;20.98;25.88
75656;BME280;64252;51.094;13.714;2024-02-23T12:39:24;98624.03;;;20.81;26.31
75656;BME280;64252;51.094;13.714;2024-02-23T12:41:50;98615.69;;;21.23;26.05
75656;BME280;64252;51.094;13.714;2024-02-23T12:44:16;98618.88;;;20.15;26.71
75656;BME280;64252;51.094;13.714;2024-02-23T12:46:41;98611.66;;;20.20;26.31
75656;BME280;64252;51.094;13.714;2024-02-23T12:49:07;98612.47;;;20.75;26.26
75656;BME280;64252;51.094;13.714;2024-02-23T12:51:32;98615.50;;;20.16;26.40
75656;BME280;64252;51.094;13.714;2024-02-23T12:53:59;98615.72;;;20.13;26.77
75656;BME280;64252;51.094;13.714;2024-02-23T12:56:25;98619.66;;;20.30;26.67
75656;BME280;64252;51.094;13.714;2024-02-23T12:58:51;98615.53;;;19.87;27.06
75656;BME280;64252;51.094;13.714;2024-02-23T13:01:19;98619.72;;;20.01;27.46
75656;BME280;64252;51.094;13.714;2024-02-23T13:03:44;98619.22;;;19.73;27.50
75656;BME280;64252;51.094;13.714;2024-02-23T13:06:10;98616.34;;;19.73;27.31
75656;BME280;64252;51.094;13.714;2024-02-23T13:08:36;98625.13;;;20.48;27.37
75656;BME280;64252;51.094;13.714;2024-02-23T13:11:04;98621.00;;;20.35;27.04
75656;BME280;64252;51.094;13.714;2024-02-23T13:13:29;98614.59;;;20.60;26.22
75656;BME280;64252;51.094;13.714;2024-02-23T13:15:58;98621.22;;;20.31;26.51
75656;BME280;64252;51.094;13.714;2024-02-23T13:18:23;98624.88;;;19.82;27.48
75656;BME280;64252;51.094;13.714;2024-02-23T13:20:50;98622.84;;;20.73;27.09
75656;BME280;64252;51.094;13.714;2024-02-23T13:23:15;98614.53;;;20.20;26.80
75656;BME280;64252;51.094;13.714;2024-02-23T13:25:42;98610.72;;;20.63;26.28
75656;BME280;64252;51.094;13.714;2024-02-23T13:28:08;98614.38;;;19.94;27.61
75656;BME280;64252;51.094;13.714;2024-02-23T13:30:35;98612.72;;;20.37;26.95
75656;BME280;64252;51.094;13.714;2024-02-23T13:33:01;98617.09;;;20.17;26.91
75656;BME280;64252;51.094;13.714;2024-02-23T13:35:28;98620.50;;;20.91;26.58
75656;BME280;64252;51.094;13.714;2024-02-23T13:37:53;98617.91;;;20.73;26.60
75656;BME280;64252;51.094;13.714;2024-02-23T13:40:19;98618.94;;;20.21;28.08
75656;BME280;64252;51.094;13.714;2024-02-23T13:42:45;98613.31;;;20.26;27.05
75656;BME280;64252;51.094;13.714;2024-02-23T13:45:15;98618.13;;;20.70;26.74
75656;BME280;64252;51.094;13.714;2024-02-23T13:47:42;98619.53;;;20.25;28.64
75656;BME280;64252;51.094;13.714;2024-02-23T13:50:10;98615.66;;;19.78;28.09
75656;BME280;64252;51.094;13.714;2024-02-23T13:52:36;98615.16;;;19.65;28.90
75656;BME280;64252;51.094;13.714;2024-02-23T13:55:05;98617.69;;;20.07;27.58
75656;BME280;64252;51.094;13.714;2024-02-23T13:57:31;98620.84;;;20.24;28.07
75656;BME280;64252;51.094;13.714;2024-02-23T13:59:58;98619.50;;;19.46;28.12
75656;BME280;64252;51.094;13.714;2024-02-23T14:02:27;98615.38;;;19.91;28.02
75656;BME280;64252;51.094;13.714;2024-02-23T14:05:01;98621.00;;;20.35;27.60
75656;BME280;64252;51.094;13.714;2024-02-23T14:07:28;98622.56;;;20.01;27.63
75656;BME280;64252;51.094;13.714;2024-02-23T14:09:55;98620.66;;;20.12;28.34
75656;BME280;64252;51.094;13.714;2024-02-23T14:12:20;98619.13;;;19.82;28.22
75656;BME280;64252;51.094;13.714;2024-02-23T14:14:46;98617.09;;;20.32;27.47
75656;BME280;64252;51.094;13.714;2024-02-23T14:17:11;98613.75;;;20.04;28.07
75656;BME280;64252;51.094;13.714;2024-02-23T14:19:37;98614.72;;;19.13;28.55
75656;BME280;64252;51.094;13.714;2024-02-23T14:22:03;98611.81;;;19.52;29.41
75656;BME280;64252;51.094;13.714;2024-02-23T14:24:28;98617.44;;;18.69;29.70
75656;BME280;64252;51.094;13.714;2024-02-23T14:26:54;98632.72;;;19.87;28.75
75656;BME280;64252;51.094;13.714;2024-02-23T14:29:19;98636.44;;;19.20;29.24
75656;BME280;64252;51.094;13.714;2024-02-23T14:31:45;98634.06;;;19.18;29.07
75656;BME280;64252;51.094;13.714;2024-02-23T14:34:10;98635.97;;;18.98;29.27
75656;BME280;64252;51.094;13.714;2024-02-23T14:36:36;98628.78;;;18.64;30.45
75656;BME280;64252;51.094;13.714;2024-02-23T14:39:02;98631.72;;;19.32;30.04
75656;BME280;64252;51.094;13.714;2024-02-23T14:41:30;98637.25;;;19.35;28.75